Time,TemperatureF,DewpointF,PressureIn,WindDirection,WindDirectionDegrees,WindSpeedMPH,WindSpeedGustMPH,Humidity,HourlyPrecipIn,Conditions,Clouds,dailyrainin,SoftwareType,DateUTC
2013-04-01 00:04:00,44.3,27.7,23.23,West,270,1.3,1.8,52,0.00,,,0.00,WUHU216HW,2013-04-01 06:04:00,
2013-04-01 00:09:00,44.3,28.2,23.23,SSW,203,1.1,1.8,53,0.00,,,0.00,WUHU216HW,2013-04-01 06:09:00,
2013-04-01 00:14:00,44.1,28.0,23.22,WSW,248,1.1,2.0,53,0.00,,,0.00,WUHU216HW,2013-04-01 06:14:00,
2013-04-01 00:19:00,44.1,28.0,23.22,WNW,293,1.3,2.0,53,0.00,,,0.00,WUHU216HW,2013-04-01 06:19:00,
2013-04-01 00:24:00,44.1,28.0,23.23,WSW,248,1.8,1.8,53,0.00,,,0.00,WUHU216HW,2013-04-01 06:24:00,
2013-04-01 00:29:00,44.1,28.0,23.23,SW,225,0.2,1.8,53,0.00,,,0.00,WUHU216HW,2013-04-01 06:29:00,
2013-04-01 00:34:00,44.1,28.0,23.23,SW,225,0.4,1.6,53,0.00,,,0.00,WUHU216HW,2013-04-01 06:34:00,
2013-04-01 00:39:00,44.1,28.0,23.23,West,270,0.0,1.1,53,0.00,,,0.00,WUHU216HW,2013-04-01 06:39:00,
2013-04-01 00:44:00,43.9,27.9,23.23,ENE,68,0.0,0.4,53,0.00,,,0.00,WUHU216HW,2013-04-01 06:44:00,
2013-04-01 00:49:00,43.7,28.2,23.23,South,180,0.4,0.4,54,0.00,,,0.00,WUHU216HW,2013-04-01 06:49:00,
2013-04-01 00:54:00,43.6,28.5,23.23,SW,225,0.7,1.1,55,0.00,,,0.00,WUHU216HW,2013-04-01 06:54:00,
2013-04-01 00:59:00,43.4,28.7,23.23,WSW,248,0.4,1.1,56,0.00,,,0.00,WUHU216HW,2013-04-01 06:59:00,
2013-04-01 01:05:00,43.4,28.7,23.23,West,270,0.0,0.9,56,0.00,,,0.00,WUHU216HW,2013-04-01 07:05:00,
2013-04-01 01:10:00,43.2,28.1,23.23,SW,225,1.1,1.1,55,0.00,,,0.00,WUHU216HW,2013-04-01 07:10:00,
2013-04-01 01:15:00,43.0,29.6,23.24,SW,225,1.8,2.5,59,0.00,,,0.00,WUHU216HW,2013-04-01 07:15:00,
2013-04-01 01:20:00,43.2,28.5,23.24,West,270,0.2,2.5,56,0.00,,,0.00,WUHU216HW,2013-04-01 07:20:00,
2013-04-01 01:25:00,43.4,28.7,23.23,SSW,203,0.0,2.5,56,0.00,,,0.00,WUHU216HW,2013-04-01 07:25:00,
2013-04-01 01:30:00,43.4,29.1,23.22,ENE,68,0.0,1.3,57,0.00,,,0.00,WUHU216HW,2013-04-01 07:30:00,
2013-04-01 01:35:00,43.2,28.9,23.23,NW,315,0.0,1.3,57,0.00,,,0.00,WUHU216HW,2013-04-01 07:35:00,
2013-04-01 01:40:00,43.0,29.2,23.22,ENE,68,0.9,0.9,58,0.00,,,0.00,WUHU216HW,2013-04-01 07:40:00,
2013-04-01 01:45:00,42.7,29.3,23.22,East,90,0.0,0.9,59,0.00,,,0.00,WUHU216HW,2013-04-01 07:45:00,
2013-04-01 01:50:00,42.5,29.5,23.21,East,90,1.1,1.1,60,0.00,,,0.00,WUHU216HW,2013-04-01 07:50:00,
2013-04-01 01:55:00,42.1,29.6,23.21,South,180,0.0,1.1,61,0.00,,,0.00,WUHU216HW,2013-04-01 07:55:00,
2013-04-01 02:01:00,41.9,29.4,23.21,East,90,0.0,1.1,61,0.00,,,0.00,WUHU216HW,2013-04-01 08:01:00,
2013-04-01 02:06:00,41.8,29.3,23.21,East,90,0.0,0.7,61,0.00,,,0.00,WUHU216HW,2013-04-01 08:06:00,
2013-04-01 02:11:00,41.6,29.5,23.21,South,180,0.0,0.7,62,0.00,,,0.00,WUHU216HW,2013-04-01 08:11:00,
2013-04-01 02:16:00,41.4,29.7,23.21,SSW,203,0.0,0.7,63,0.00,,,0.00,WUHU216HW,2013-04-01 08:16:00,
2013-04-01 02:21:00,41.2,29.5,23.21,SSW,203,0.2,0.4,63,0.00,,,0.00,WUHU216HW,2013-04-01 08:21:00,
2013-04-01 02:26:00,41.0,29.4,23.21,SE,135,0.2,0.4,63,0.00,,,0.00,WUHU216HW,2013-04-01 08:26:00,
2013-04-01 02:31:00,41.0,29.4,23.21,SSW,203,0.0,0.4,63,0.00,,,0.00,WUHU216HW,2013-04-01 08:31:00,
2013-04-01 02:36:00,40.9,29.3,23.21,South,180,0.0,0.2,63,0.00,,,0.00,WUHU216HW,2013-04-01 08:36:00,
2013-04-01 02:41:00,40.7,29.1,23.21,South,180,0.0,0.2,63,0.00,,,0.00,WUHU216HW,2013-04-01 08:41:00,
2013-04-01 02:46:00,40.7,28.6,23.21,East,90,0.0,0.7,62,0.00,,,0.00,WUHU216HW,2013-04-01 08:46:00,
2013-04-01 02:51:00,40.7,28.6,23.21,East,90,0.0,0.7,62,0.00,,,0.00,WUHU216HW,2013-04-01 08:51:00,
2013-04-01 03:00:00,40.1,28.9,23.20,East,90,0.0,0.0,64,0.00,,,0.00,WUHU216HW,2013-04-01 09:00:00,
2013-04-01 03:05:00,40.0,28.7,23.20,East,90,0.0,0.7,64,0.00,,,0.00,WUHU216HW,2013-04-01 09:05:00,
2013-04-01 03:10:00,40.0,28.4,23.20,ENE,68,0.4,0.7,63,0.00,,,0.00,WUHU216HW,2013-04-01 09:10:00,
2013-04-01 03:15:00,39.8,28.5,23.20,ENE,68,0.2,1.3,64,0.00,,,0.00,WUHU216HW,2013-04-01 09:15:00,
2013-04-01 03:20:00,39.6,28.4,23.20,SSE,158,0.2,1.6,64,0.00,,,0.00,WUHU216HW,2013-04-01 09:20:00,
2013-04-01 03:25:00,39.6,28.7,23.20,SSW,203,0.0,1.6,65,0.00,,,0.00,WUHU216HW,2013-04-01 09:25:00,
2013-04-01 03:30:00,39.4,28.5,23.20,ENE,68,2.0,2.0,65,0.00,,,0.00,WUHU216HW,2013-04-01 09:30:00,
2013-04-01 03:35:00,39.2,28.7,23.20,ENE,68,0.0,2.0,66,0.00,,,0.00,WUHU216HW,2013-04-01 09:35:00,
2013-04-01 03:40:00,39.2,28.7,23.20,ENE,68,0.0,1.1,66,0.00,,,0.00,WUHU216HW,2013-04-01 09:40:00,
2013-04-01 03:45:00,39.2,29.1,23.20,SSW,203,1.3,1.3,67,0.00,,,0.00,WUHU216HW,2013-04-01 09:45:00,
2013-04-01 03:51:00,39.2,29.5,23.20,SW,225,0.7,1.3,68,0.00,,,0.00,WUHU216HW,2013-04-01 09:51:00,
2013-04-01 03:56:00,39.2,29.5,23.21,WSW,248,0.7,0.9,68,0.00,,,0.00,WUHU216HW,2013-04-01 09:56:00,
2013-04-01 04:01:00,39.2,29.9,23.21,SW,225,0.4,1.3,69,0.00,,,0.00,WUHU216HW,2013-04-01 10:01:00,
2013-04-01 04:06:00,39.2,29.5,23.21,SW,225,0.7,1.3,68,0.00,,,0.00,WUHU216HW,2013-04-01 10:06:00,
2013-04-01 04:11:00,39.2,30.2,23.21,West,270,1.6,2.0,70,0.00,,,0.00,WUHU216HW,2013-04-01 10:11:00,
2013-04-01 04:16:00,39.4,29.7,23.21,WNW,293,0.4,2.2,68,0.00,,,0.00,WUHU216HW,2013-04-01 10:16:00,
2013-04-01 04:21:00,40.0,30.6,23.21,SSW,203,4.0,4.0,69,0.00,,,0.00,WUHU216HW,2013-04-01 10:21:00,
2013-04-01 04:26:00,40.5,31.2,23.21,West,270,1.6,4.0,69,0.00,,,0.00,WUHU216HW,2013-04-01 10:26:00,
2013-04-01 04:32:00,40.7,31.0,23.21,WSW,248,0.0,2.2,68,0.00,,,0.00,WUHU216HW,2013-04-01 10:32:00,
2013-04-01 04:37:00,40.7,30.5,23.20,SW,225,2.7,2.7,67,0.00,,,0.00,WUHU216HW,2013-04-01 10:37:00,
2013-04-01 04:42:00,40.7,31.0,23.21,SSW,203,1.6,2.9,68,0.00,,,0.00,WUHU216HW,2013-04-01 10:42:00,
2013-04-01 04:47:00,40.7,31.0,23.21,WSW,248,3.6,3.6,68,0.00,,,0.00,WUHU216HW,2013-04-01 10:47:00,
2013-04-01 04:52:00,40.9,31.9,23.21,South,180,1.1,3.6,70,0.00,,,0.00,WUHU216HW,2013-04-01 10:52:00,
2013-04-01 04:57:00,40.9,32.2,23.21,SW,225,1.8,3.1,71,0.00,,,0.00,WUHU216HW,2013-04-01 10:57:00,
2013-04-01 05:02:00,40.7,31.7,23.21,SW,225,1.1,2.9,70,0.00,,,0.00,WUHU216HW,2013-04-01 11:02:00,
2013-04-01 05:07:00,40.3,31.7,23.20,SW,225,0.7,1.6,71,0.00,,,0.00,WUHU216HW,2013-04-01 11:07:00,
2013-04-01 05:12:00,40.0,32.9,23.20,West,270,1.8,2.5,76,0.00,,,0.00,WUHU216HW,2013-04-01 11:12:00,
2013-04-01 05:17:00,39.4,32.8,23.20,WSW,248,1.8,2.5,77,0.00,,,0.00,WUHU216HW,2013-04-01 11:17:00,
2013-04-01 05:22:00,39.2,31.6,23.20,SE,135,0.0,1.8,74,0.00,,,0.00,WUHU216HW,2013-04-01 11:22:00,
2013-04-01 05:28:00,38.9,31.6,23.19,SW,225,0.0,1.3,75,0.00,,,0.00,WUHU216HW,2013-04-01 11:28:00,
2013-04-01 05:33:00,38.7,31.4,23.19,SW,225,0.0,1.1,75,0.00,,,0.00,WUHU216HW,2013-04-01 11:33:00,
2013-04-01 05:38:00,38.5,31.0,23.19,SW,225,0.0,0.0,74,0.00,,,0.00,WUHU216HW,2013-04-01 11:38:00,
2013-04-01 05:43:00,38.3,31.8,23.19,SW,225,1.8,1.8,77,0.00,,,0.00,WUHU216HW,2013-04-01 11:43:00,
2013-04-01 05:48:00,38.2,31.2,23.19,SW,225,0.4,1.8,76,0.00,,,0.00,WUHU216HW,2013-04-01 11:48:00,
2013-04-01 05:53:00,38.0,31.1,23.19,SSW,203,1.1,1.8,76,0.00,,,0.00,WUHU216HW,2013-04-01 11:53:00,
2013-04-01 05:58:00,38.0,31.8,23.19,SSW,203,0.4,1.3,78,0.00,,,0.00,WUHU216HW,2013-04-01 11:58:00,
2013-04-01 06:03:00,37.8,30.9,23.19,SE,135,0.2,1.3,76,0.00,,,0.00,WUHU216HW,2013-04-01 12:03:00,
2013-04-01 06:08:00,38.0,31.1,23.19,South,180,0.0,0.9,76,0.00,,,0.00,WUHU216HW,2013-04-01 12:08:00,
2013-04-01 06:13:00,38.2,31.6,23.19,SSW,203,0.0,0.9,77,0.00,,,0.00,WUHU216HW,2013-04-01 12:13:00,
2013-04-01 06:18:00,38.2,31.6,23.19,SW,225,1.1,1.3,77,0.00,,,0.00,WUHU216HW,2013-04-01 12:18:00,
2013-04-01 06:23:00,38.2,31.6,23.19,South,180,0.7,1.8,77,0.00,,,0.00,WUHU216HW,2013-04-01 12:23:00,
2013-04-01 06:28:00,38.2,31.6,23.19,SW,225,1.8,3.1,77,0.00,,,0.00,WUHU216HW,2013-04-01 12:28:00,
2013-04-01 06:33:00,38.2,32.0,23.20,West,270,1.1,3.1,78,0.00,,,0.00,WUHU216HW,2013-04-01 12:33:00,
2013-04-01 06:38:00,38.2,31.6,23.20,West,270,1.1,1.8,77,0.00,,,0.00,WUHU216HW,2013-04-01 12:38:00,
2013-04-01 06:43:00,38.2,31.6,23.20,NW,315,0.0,1.1,77,0.00,,,0.00,WUHU216HW,2013-04-01 12:43:00,
2013-04-01 06:48:00,38.3,31.4,23.20,West,270,0.0,1.1,76,0.00,,,0.00,WUHU216HW,2013-04-01 12:48:00,
2013-04-01 06:53:00,38.5,32.0,23.20,West,270,1.1,1.1,77,0.00,,,0.00,WUHU216HW,2013-04-01 12:53:00,
2013-04-01 06:58:00,38.5,31.6,23.20,West,270,0.0,1.1,76,0.00,,,0.00,WUHU216HW,2013-04-01 12:58:00,
2013-04-01 07:03:00,38.5,31.2,23.20,NNE,23,0.0,0.4,75,0.00,,,0.00,WUHU216HW,2013-04-01 13:03:00,
2013-04-01 07:08:00,38.5,31.6,23.20,NNE,23,0.9,0.9,76,0.00,,,0.00,WUHU216HW,2013-04-01 13:08:00,
2013-04-01 07:14:00,38.3,31.8,23.20,SW,225,0.9,0.9,77,0.00,,,0.00,WUHU216HW,2013-04-01 13:14:00,
2013-04-01 07:19:00,38.2,31.2,23.20,SW,225,0.0,0.9,76,0.00,,,0.00,WUHU216HW,2013-04-01 13:19:00,
2013-04-01 07:24:00,37.8,30.9,23.20,South,180,0.0,0.0,76,0.00,,,0.00,WUHU216HW,2013-04-01 13:24:00,
2013-04-01 07:29:00,37.8,30.9,23.20,SSW,203,0.0,0.7,76,0.00,,,0.00,WUHU216HW,2013-04-01 13:29:00,
2013-04-01 07:34:00,37.8,31.2,23.20,East,90,0.4,1.1,77,0.00,,,0.00,WUHU216HW,2013-04-01 13:34:00,
2013-04-01 07:39:00,37.8,30.9,23.20,ESE,113,0.0,1.1,76,0.00,,,0.00,WUHU216HW,2013-04-01 13:39:00,
2013-04-01 07:44:00,37.8,30.9,23.20,ENE,68,1.1,1.1,76,0.00,,,0.00,WUHU216HW,2013-04-01 13:44:00,
2013-04-01 07:49:00,37.8,30.9,23.20,ENE,68,0.7,1.1,76,0.00,,,0.00,WUHU216HW,2013-04-01 13:49:00,
2013-04-01 07:54:00,37.6,31.4,23.20,WSW,248,0.0,1.1,78,0.00,,,0.00,WUHU216HW,2013-04-01 13:54:00,
2013-04-01 07:59:00,37.6,31.4,23.20,SW,225,0.2,1.1,78,0.00,,,0.00,WUHU216HW,2013-04-01 13:59:00,
2013-04-01 08:04:00,37.4,30.9,23.20,SW,225,0.0,1.1,77,0.00,,,0.00,WUHU216HW,2013-04-01 14:04:00,
2013-04-01 08:09:00,37.4,31.2,23.20,North,0,0.0,0.2,78,0.00,,,0.00,WUHU216HW,2013-04-01 14:09:00,
2013-04-01 08:14:00,37.4,31.2,23.19,NW,315,0.0,0.4,78,0.00,,,0.00,WUHU216HW,2013-04-01 14:14:00,
2013-04-01 08:19:00,37.4,31.5,23.19,WNW,293,0.0,0.4,79,0.00,,,0.00,WUHU216HW,2013-04-01 14:19:00,
2013-04-01 08:25:00,37.4,31.5,23.19,WNW,293,0.0,0.0,79,0.00,,,0.00,WUHU216HW,2013-04-01 14:25:00,
2013-04-01 08:47:00,37.1,32.0,23.20,ENE,68,0.9,0.9,82,0.00,,,0.00,WUHU216HW,2013-04-01 14:47:00,
2013-04-01 08:52:00,37.3,32.2,23.19,NE,45,0.9,1.6,82,0.00,,,0.00,WUHU216HW,2013-04-01 14:52:00,
2013-04-01 08:57:00,37.3,32.2,23.19,ENE,68,1.6,2.2,82,0.00,,,0.00,WUHU216HW,2013-04-01 14:57:00,
2013-04-01 09:02:00,37.4,32.4,23.19,East,90,1.8,3.1,82,0.00,,,0.00,WUHU216HW,2013-04-01 15:02:00,
2013-04-01 09:07:00,37.6,32.6,23.19,ENE,68,2.0,3.4,82,0.00,,,0.00,WUHU216HW,2013-04-01 15:07:00,
2013-04-01 09:12:00,37.6,32.6,23.19,East,90,0.4,3.4,82,0.00,,,0.00,WUHU216HW,2013-04-01 15:12:00,
2013-04-01 09:17:00,37.6,32.6,23.19,East,90,0.4,0.4,82,0.00,,,0.00,WUHU216HW,2013-04-01 15:17:00,
2013-04-01 09:38:00,38.5,33.9,23.19,ENE,68,4.3,4.3,83,0.00,,,0.00,WUHU216HW,2013-04-01 15:38:00,
2013-04-01 09:43:00,38.9,33.8,23.18,NNE,23,1.8,4.3,82,0.00,,,0.00,WUHU216HW,2013-04-01 15:43:00,
2013-04-01 09:48:00,39.1,34.0,23.18,NNE,23,1.8,4.3,82,0.00,,,0.00,WUHU216HW,2013-04-01 15:48:00,
2013-04-01 09:53:00,39.4,34.4,23.18,NE,45,2.5,3.4,82,0.00,,,0.00,WUHU216HW,2013-04-01 15:53:00,
2013-04-01 09:58:00,40.0,34.6,23.18,NE,45,3.4,3.4,81,0.00,,,0.00,WUHU216HW,2013-04-01 15:58:00,
2013-04-01 10:03:00,40.1,34.7,23.18,NE,45,1.6,3.6,81,0.00,,,0.00,WUHU216HW,2013-04-01 16:03:00,
2013-04-01 10:08:00,40.5,35.1,23.18,NE,45,2.5,3.6,81,0.00,,,0.00,WUHU216HW,2013-04-01 16:08:00,
2013-04-01 10:13:00,40.7,34.9,23.18,East,90,3.8,4.3,80,0.00,,,0.00,WUHU216HW,2013-04-01 16:13:00,
2013-04-01 10:18:00,41.0,35.3,23.18,East,90,3.4,4.3,80,0.00,,,0.00,WUHU216HW,2013-04-01 16:18:00,
2013-04-01 10:23:00,41.8,35.6,23.18,NE,45,4.0,5.4,79,0.00,,,0.00,WUHU216HW,2013-04-01 16:23:00,
2013-04-01 10:28:00,42.1,35.7,23.18,NE,45,2.9,5.4,78,0.00,,,0.00,WUHU216HW,2013-04-01 16:28:00,
2013-04-01 10:33:00,42.1,35.1,23.17,NE,45,3.4,4.9,76,0.00,,,0.00,WUHU216HW,2013-04-01 16:33:00,
2013-04-01 10:38:00,42.1,35.1,23.18,ENE,68,5.6,5.6,76,0.00,,,0.00,WUHU216HW,2013-04-01 16:38:00,
2013-04-01 10:43:00,42.1,35.1,23.18,NE,45,5.8,5.8,76,0.00,,,0.00,WUHU216HW,2013-04-01 16:43:00,
2013-04-01 10:48:00,42.1,35.1,23.17,NE,45,4.0,6.3,76,0.00,,,0.00,WUHU216HW,2013-04-01 16:48:00,
2013-04-01 10:53:00,41.9,35.2,23.17,NNE,23,5.1,6.3,77,0.00,,,0.00,WUHU216HW,2013-04-01 16:53:00,
2013-04-01 10:59:00,42.1,35.4,23.17,NE,45,3.4,6.3,77,0.00,,,0.00,WUHU216HW,2013-04-01 16:59:00,
2013-04-01 11:04:00,42.5,35.7,23.17,NNE,23,2.5,6.3,77,0.00,,,0.00,WUHU216HW,2013-04-01 17:04:00,
2013-04-01 11:09:00,42.5,35.5,23.17,NNE,23,1.3,2.7,76,0.00,,,0.00,WUHU216HW,2013-04-01 17:09:00,
2013-04-01 11:14:00,42.5,35.5,23.17,NNE,23,1.3,1.3,76,0.00,,,0.00,WUHU216HW,2013-04-01 17:14:00,
2013-04-01 11:35:00,43.2,34.5,23.17,NE,45,1.8,1.8,71,0.00,,,0.00,WUHU216HW,2013-04-01 17:35:00,
2013-04-01 11:40:00,43.2,34.5,23.17,NE,45,1.6,3.4,71,0.00,,,0.00,WUHU216HW,2013-04-01 17:40:00,
2013-04-01 11:45:00,43.2,34.5,23.17,NE,45,2.2,3.8,71,0.00,,,0.00,WUHU216HW,2013-04-01 17:45:00,
2013-04-01 11:50:00,43.2,34.5,23.17,ENE,68,2.5,3.8,71,0.00,,,0.00,WUHU216HW,2013-04-01 17:50:00,
2013-04-01 11:55:00,43.2,34.5,23.17,ENE,68,1.3,3.4,71,0.00,,,0.00,WUHU216HW,2013-04-01 17:55:00,
2013-04-01 12:00:00,43.4,35.0,23.17,ENE,68,1.1,2.5,72,0.00,,,0.00,WUHU216HW,2013-04-01 18:00:00,
2013-04-01 12:05:00,43.6,34.8,23.17,ENE,68,1.3,2.5,71,0.00,,,0.00,WUHU216HW,2013-04-01 18:05:00,
2013-04-01 12:10:00,43.6,34.8,23.16,NE,45,1.3,3.4,71,0.00,,,0.00,WUHU216HW,2013-04-01 18:10:00,
2013-04-01 12:15:00,43.7,35.0,23.17,East,90,2.7,3.4,71,0.00,,,0.00,WUHU216HW,2013-04-01 18:15:00,
2013-04-01 12:20:00,43.7,34.7,23.17,ENE,68,3.4,3.4,70,0.00,,,0.00,WUHU216HW,2013-04-01 18:20:00,
2013-04-01 12:25:00,43.6,34.5,23.17,East,90,1.1,3.4,70,0.00,,,0.00,WUHU216HW,2013-04-01 18:25:00,
2013-04-01 12:31:00,43.4,34.3,23.17,West,270,0.4,1.8,70,0.00,,,0.00,WUHU216HW,2013-04-01 18:31:00,
2013-04-01 12:36:00,43.0,34.0,23.17,SW,225,2.5,2.5,70,0.00,,,0.00,WUHU216HW,2013-04-01 18:36:00,
2013-04-01 12:41:00,42.3,34.3,23.17,SSW,203,4.9,8.3,73,0.00,,,0.00,WUHU216HW,2013-04-01 18:41:00,
2013-04-01 12:47:00,40.5,33.5,23.18,SSW,203,4.9,9.6,76,0.00,,,0.00,WUHU216HW,2013-04-01 18:47:00,
2013-04-01 12:52:00,38.7,33.1,23.19,SSE,158,5.4,9.6,80,0.00,,,0.00,WUHU216HW,2013-04-01 18:52:00,
2013-04-01 12:57:00,37.8,32.8,23.19,SW,225,2.9,12.8,82,0.00,,,0.00,WUHU216HW,2013-04-01 18:57:00,
2013-04-01 13:02:00,37.1,31.5,23.19,WSW,248,1.6,12.8,80,0.00,,,0.00,WUHU216HW,2013-04-01 19:02:00,
2013-04-01 13:08:00,36.7,31.1,23.18,WNW,293,0.0,1.8,80,0.00,,,0.00,WUHU216HW,2013-04-01 19:08:00,
2013-04-01 13:13:00,36.5,31.0,23.18,WNW,293,1.1,1.3,80,0.00,,,0.00,WUHU216HW,2013-04-01 19:13:00,
2013-04-01 13:18:00,36.4,31.1,23.18,WNW,293,0.7,1.3,81,0.00,,,0.00,WUHU216HW,2013-04-01 19:18:00,
2013-04-01 13:23:00,36.4,30.8,23.18,WNW,293,0.0,1.1,80,0.00,,,0.00,WUHU216HW,2013-04-01 19:23:00,
2013-04-01 13:28:00,36.4,31.1,23.18,WNW,293,0.0,1.1,81,0.00,,,0.00,WUHU216HW,2013-04-01 19:28:00,
2013-04-01 13:33:00,36.4,31.1,23.18,WSW,248,0.9,1.1,81,0.00,,,0.00,WUHU216HW,2013-04-01 19:33:00,
2013-04-01 13:38:00,36.4,31.3,23.18,West,270,0.4,0.9,82,0.00,,,0.00,WUHU216HW,2013-04-01 19:38:00,
2013-04-01 13:43:00,36.4,31.3,23.18,NNW,338,0.2,0.9,82,0.00,,,0.00,WUHU216HW,2013-04-01 19:43:00,
2013-04-01 13:48:00,36.4,31.3,23.18,NNW,338,0.0,0.4,82,0.00,,,0.00,WUHU216HW,2013-04-01 19:48:00,
2013-04-01 13:54:00,36.2,31.1,23.19,NNW,338,0.0,0.0,82,0.00,,,0.00,WUHU216HW,2013-04-01 19:54:00,
2013-04-01 13:59:00,36.4,31.7,23.18,West,270,0.0,0.0,83,0.00,,,0.00,WUHU216HW,2013-04-01 19:59:00,
2013-04-01 14:04:00,36.4,31.7,23.18,West,270,0.0,0.0,83,0.00,,,0.00,WUHU216HW,2013-04-01 20:04:00,
2013-04-01 14:09:00,36.4,31.7,23.18,West,270,0.0,0.0,83,0.00,,,0.00,WUHU216HW,2013-04-01 20:09:00,
2013-04-01 14:33:00,36.9,33.3,23.18,NE,45,1.1,1.1,87,0.00,,,0.00,WUHU216HW,2013-04-01 20:33:00,
2013-04-01 14:38:00,37.1,33.9,23.18,NE,45,1.3,1.8,88,0.00,,,0.00,WUHU216HW,2013-04-01 20:38:00,
2013-04-01 14:43:00,37.1,33.5,23.18,NE,45,1.8,1.8,87,0.00,,,0.00,WUHU216HW,2013-04-01 20:43:00,
2013-04-01 14:48:00,37.1,33.5,23.18,ENE,68,2.5,2.5,87,0.00,,,0.00,WUHU216HW,2013-04-01 20:48:00,
2013-04-01 14:53:00,37.3,34.0,23.18,East,90,1.1,2.5,88,0.00,,,0.00,WUHU216HW,2013-04-01 20:53:00,
2013-04-01 14:58:00,37.4,34.2,23.18,NE,45,2.5,2.5,88,0.00,,,0.00,WUHU216HW,2013-04-01 20:58:00,
2013-04-01 15:03:00,37.6,34.7,23.17,NE,45,0.9,2.5,89,0.00,,,0.00,WUHU216HW,2013-04-01 21:03:00,
2013-04-01 15:08:00,37.6,34.7,23.18,East,90,1.6,3.1,89,0.00,,,0.00,WUHU216HW,2013-04-01 21:08:00,
2013-04-01 15:13:00,37.8,34.8,23.17,East,90,2.2,3.1,89,0.00,,,0.00,WUHU216HW,2013-04-01 21:13:00,
2013-04-01 15:18:00,37.8,34.8,23.17,East,90,1.8,2.5,89,0.00,,,0.00,WUHU216HW,2013-04-01 21:18:00,
2013-04-01 15:23:00,37.8,34.6,23.17,East,90,1.3,1.8,88,0.00,,,0.00,WUHU216HW,2013-04-01 21:23:00,
2013-04-01 15:28:00,38.0,34.8,23.17,East,90,0.4,1.8,88,0.00,,,0.00,WUHU216HW,2013-04-01 21:28:00,
2013-04-01 15:34:00,38.2,34.6,23.17,ENE,68,0.4,1.1,87,0.00,,,0.00,WUHU216HW,2013-04-01 21:34:00,
2013-04-01 15:39:00,38.2,34.6,23.17,East,90,0.9,1.1,87,0.00,,,0.00,WUHU216HW,2013-04-01 21:39:00,
2013-04-01 15:44:00,38.5,34.9,23.17,ENE,68,1.8,1.8,87,0.00,,,0.00,WUHU216HW,2013-04-01 21:44:00,
2013-04-01 15:49:00,38.3,34.7,23.17,ENE,68,0.7,1.8,87,0.00,,,0.00,WUHU216HW,2013-04-01 21:49:00,
2013-04-01 15:54:00,38.3,34.7,23.17,ENE,68,1.1,1.8,87,0.00,,,0.00,WUHU216HW,2013-04-01 21:54:00,
2013-04-01 15:59:00,38.5,34.9,23.17,ENE,68,0.7,1.3,87,0.00,,,0.00,WUHU216HW,2013-04-01 21:59:00,
2013-04-01 16:04:00,38.5,34.9,23.17,ENE,68,1.1,1.3,87,0.00,,,0.00,WUHU216HW,2013-04-01 22:04:00,
2013-04-01 16:09:00,38.5,34.9,23.16,East,90,1.3,1.3,87,0.00,,,0.00,WUHU216HW,2013-04-01 22:09:00,
2013-04-01 16:14:00,38.7,35.1,23.16,East,90,2.5,2.5,87,0.00,,,0.00,WUHU216HW,2013-04-01 22:14:00,
2013-04-01 16:19:00,38.7,35.1,23.16,East,90,2.0,2.5,87,0.00,,,0.00,WUHU216HW,2013-04-01 22:19:00,
2013-04-01 16:24:00,38.7,35.1,23.16,ENE,68,1.1,2.2,87,0.00,,,0.00,WUHU216HW,2013-04-01 22:24:00,
2013-04-01 16:29:00,38.7,35.1,23.17,ESE,113,0.7,2.0,87,0.00,,,0.00,WUHU216HW,2013-04-01 22:29:00,
2013-04-01 16:34:00,38.7,35.1,23.16,ESE,113,1.8,2.5,87,0.00,,,0.00,WUHU216HW,2013-04-01 22:34:00,
2013-04-01 16:39:00,38.9,35.3,23.16,ESE,113,0.7,2.5,87,0.00,,,0.00,WUHU216HW,2013-04-01 22:39:00,
2013-04-01 16:44:00,39.4,35.8,23.16,ENE,68,1.8,3.8,87,0.00,,,0.00,WUHU216HW,2013-04-01 22:44:00,
2013-04-01 16:49:00,39.8,35.9,23.16,ENE,68,0.9,3.8,86,0.00,,,0.00,WUHU216HW,2013-04-01 22:49:00,
2013-04-01 16:54:00,40.0,36.1,23.16,East,90,1.8,2.5,86,0.00,,,0.00,WUHU216HW,2013-04-01 22:54:00,
2013-04-01 17:00:00,40.0,35.8,23.16,ENE,68,2.7,3.4,85,0.00,,,0.00,WUHU216HW,2013-04-01 23:00:00,
2013-04-01 17:05:00,39.6,35.2,23.16,East,90,2.0,3.8,84,0.00,,,0.00,WUHU216HW,2013-04-01 23:05:00,
2013-04-01 17:10:00,39.2,34.8,23.16,East,90,2.2,3.8,84,0.00,,,0.00,WUHU216HW,2013-04-01 23:10:00,
2013-04-01 17:15:00,39.1,34.7,23.16,ENE,68,1.1,2.5,84,0.00,,,0.00,WUHU216HW,2013-04-01 23:15:00,
2013-04-01 17:20:00,38.9,34.7,23.16,East,90,2.2,2.2,85,0.00,,,0.00,WUHU216HW,2013-04-01 23:20:00,
2013-04-01 17:25:00,38.7,34.6,23.16,East,90,1.1,2.5,85,0.00,,,0.00,WUHU216HW,2013-04-01 23:25:00,
2013-04-01 17:30:00,38.7,34.6,23.16,ENE,68,1.6,2.5,85,0.00,,,0.00,WUHU216HW,2013-04-01 23:30:00,
2013-04-01 17:35:00,38.7,34.6,23.16,NE,45,1.3,1.8,85,0.00,,,0.00,WUHU216HW,2013-04-01 23:35:00,
2013-04-01 17:40:00,38.5,34.7,23.16,East,90,2.0,2.2,86,0.00,,,0.00,WUHU216HW,2013-04-01 23:40:00,
2013-04-01 17:45:00,38.5,34.7,23.16,East,90,0.9,2.5,86,0.00,,,0.00,WUHU216HW,2013-04-01 23:45:00,
2013-04-01 17:50:00,38.5,34.4,23.16,NE,45,1.1,2.5,85,0.00,,,0.00,WUHU216HW,2013-04-01 23:50:00,
2013-04-01 17:55:00,38.5,34.7,23.16,ENE,68,1.3,1.8,86,0.00,,,0.00,WUHU216HW,2013-04-01 23:55:00,
2013-04-01 18:00:00,38.5,34.4,23.16,East,90,2.5,2.7,85,0.00,,,0.00,WUHU216HW,2013-04-02 00:00:00,
2013-04-01 18:05:00,38.5,34.4,23.16,ENE,68,0.7,2.5,85,0.00,,,0.00,WUHU216HW,2013-04-02 00:05:00,
2013-04-01 18:10:00,38.3,34.2,23.16,East,90,0.4,1.8,85,0.00,,,0.00,WUHU216HW,2013-04-02 00:10:00,
2013-04-01 18:15:00,38.3,34.2,23.17,ENE,68,1.6,1.6,85,0.00,,,0.00,WUHU216HW,2013-04-02 00:15:00,
2013-04-01 18:20:00,38.3,34.2,23.17,ENE,68,0.0,1.6,85,0.00,,,0.00,WUHU216HW,2013-04-02 00:20:00,
2013-04-01 18:25:00,38.3,34.2,23.17,ENE,68,0.0,1.1,85,0.00,,,0.00,WUHU216HW,2013-04-02 00:25:00,
2013-04-01 18:31:00,38.3,34.2,23.17,ENE,68,0.4,0.7,85,0.00,,,0.00,WUHU216HW,2013-04-02 00:31:00,
2013-04-01 18:36:00,38.3,34.2,23.17,ENE,68,0.4,0.7,85,0.00,,,0.00,WUHU216HW,2013-04-02 00:36:00,
2013-04-01 18:41:00,38.2,34.0,23.17,ENE,68,0.0,0.7,85,0.00,,,0.00,WUHU216HW,2013-04-02 00:41:00,
2013-04-01 18:46:00,38.2,33.8,23.16,ENE,68,0.0,0.4,84,0.00,,,0.00,WUHU216HW,2013-04-02 00:46:00,
2013-04-01 18:51:00,38.2,33.8,23.17,SSW,203,0.0,0.0,84,0.00,,,0.00,WUHU216HW,2013-04-02 00:51:00,
2013-04-01 18:56:00,38.2,34.0,23.17,WSW,248,0.0,0.2,85,0.00,,,0.00,WUHU216HW,2013-04-02 00:56:00,
2013-04-01 19:01:00,38.2,34.0,23.17,West,270,1.8,1.8,85,0.00,,,0.00,WUHU216HW,2013-04-02 01:01:00,
2013-04-01 19:06:00,38.0,33.8,23.17,WNW,293,0.4,3.1,85,0.00,,,0.00,WUHU216HW,2013-04-02 01:06:00,
2013-04-01 19:12:00,37.8,33.7,23.17,WNW,293,2.9,4.0,85,0.00,,,0.00,WUHU216HW,2013-04-02 01:12:00,
2013-04-01 19:17:00,37.4,33.3,23.17,WSW,248,2.5,4.7,85,0.00,,,0.00,WUHU216HW,2013-04-02 01:17:00,
2013-04-01 19:22:00,37.1,32.9,23.17,WSW,248,2.7,2.7,85,0.00,,,0.00,WUHU216HW,2013-04-02 01:22:00,
2013-04-01 19:27:00,36.9,33.0,23.17,WNW,293,1.1,2.9,86,0.00,,,0.00,WUHU216HW,2013-04-02 01:27:00,
2013-04-01 19:32:00,36.7,32.9,23.17,West,270,1.8,2.9,86,0.00,,,0.00,WUHU216HW,2013-04-02 01:32:00,
2013-04-01 19:37:00,36.5,32.7,23.17,West,270,2.0,2.2,86,0.00,,,0.00,WUHU216HW,2013-04-02 01:37:00,
2013-04-01 19:42:00,36.4,32.5,23.17,West,270,2.5,3.4,86,0.00,,,0.00,WUHU216HW,2013-04-02 01:42:00,
2013-04-01 19:47:00,36.4,32.8,23.17,West,270,2.2,3.4,87,0.00,,,0.00,WUHU216HW,2013-04-02 01:47:00,
2013-04-01 19:52:00,36.2,32.6,23.17,WNW,293,2.2,2.2,87,0.00,,,0.00,WUHU216HW,2013-04-02 01:52:00,
2013-04-01 19:58:00,36.0,32.4,23.17,West,270,2.5,2.5,87,0.00,,,0.00,WUHU216HW,2013-04-02 01:58:00,
2013-04-01 20:03:00,35.8,32.2,23.17,West,270,1.8,2.5,87,0.00,,,0.00,WUHU216HW,2013-04-02 02:03:00,
2013-04-01 20:08:00,35.6,31.8,23.17,WNW,293,2.0,2.5,86,0.00,,,0.00,WUHU216HW,2013-04-02 02:08:00,
2013-04-01 20:13:00,35.6,31.8,23.18,WSW,248,2.7,2.7,86,0.00,,,0.00,WUHU216HW,2013-04-02 02:13:00,
2013-04-01 20:18:00,35.6,31.8,23.17,West,270,1.3,2.7,86,0.00,,,0.00,WUHU216HW,2013-04-02 02:18:00,
2013-04-01 20:23:00,35.5,31.6,23.18,West,270,1.6,2.5,86,0.00,,,0.00,WUHU216HW,2013-04-02 02:23:00,
2013-04-01 20:28:00,35.5,31.9,23.18,WNW,293,3.6,3.6,87,0.00,,,0.00,WUHU216HW,2013-04-02 02:28:00,
2013-04-01 20:33:00,35.3,31.7,23.18,WNW,293,2.5,3.6,87,0.00,,,0.00,WUHU216HW,2013-04-02 02:33:00,
2013-04-01 20:38:00,35.1,31.9,23.18,WNW,293,1.1,2.9,88,0.00,,,0.00,WUHU216HW,2013-04-02 02:38:00,
2013-04-01 20:43:00,34.9,31.7,23.18,West,270,2.2,2.9,88,0.00,,,0.00,WUHU216HW,2013-04-02 02:43:00,
2013-04-01 20:48:00,34.9,31.3,23.18,WNW,293,0.7,2.2,87,0.00,,,0.00,WUHU216HW,2013-04-02 02:48:00,
2013-04-01 20:53:00,34.7,31.1,23.18,West,270,1.6,1.6,87,0.00,,,0.00,WUHU216HW,2013-04-02 02:53:00,
2013-04-01 20:58:00,34.6,31.0,23.18,West,270,1.1,1.8,87,0.00,,,0.00,WUHU216HW,2013-04-02 02:58:00,
2013-04-01 21:03:00,34.2,30.6,23.18,West,270,2.0,2.0,87,0.00,,,0.00,WUHU216HW,2013-04-02 03:03:00,
2013-04-01 21:08:00,34.0,30.4,23.18,WNW,293,1.6,2.5,87,0.00,,,0.00,WUHU216HW,2013-04-02 03:08:00,
2013-04-01 21:13:00,34.0,30.4,23.18,WNW,293,0.4,2.5,87,0.00,,,0.00,WUHU216HW,2013-04-02 03:13:00,
2013-04-01 21:18:00,33.8,30.2,23.18,West,270,0.4,2.5,87,0.00,,,0.00,WUHU216HW,2013-04-02 03:18:00,
2013-04-01 21:23:00,34.0,30.4,23.19,North,0,0.0,0.4,87,0.00,,,0.00,WUHU216HW,2013-04-02 03:23:00,
2013-04-01 21:28:00,34.2,30.6,23.19,North,0,0.0,0.0,87,0.00,,,0.00,WUHU216HW,2013-04-02 03:28:00,
2013-04-01 21:34:00,34.2,30.6,23.18,North,0,0.0,0.0,87,0.00,,,0.00,WUHU216HW,2013-04-02 03:34:00,
2013-04-01 21:39:00,34.2,30.6,23.19,North,0,0.0,0.0,87,0.00,,,0.00,WUHU216HW,2013-04-02 03:39:00,
2013-04-01 21:44:00,33.8,30.2,23.18,North,0,0.0,0.0,87,0.00,,,0.00,WUHU216HW,2013-04-02 03:44:00,
2013-04-01 21:49:00,33.8,30.2,23.18,North,0,0.0,0.0,87,0.00,,,0.00,WUHU216HW,2013-04-02 03:49:00,
2013-04-01 21:54:00,33.7,30.2,23.18,North,0,0.0,0.0,87,0.00,,,0.00,WUHU216HW,2013-04-02 03:54:00,
2013-04-01 21:59:00,33.7,30.2,23.18,North,0,0.0,0.0,87,0.00,,,0.00,WUHU216HW,2013-04-02 03:59:00,
2013-04-01 22:00:00,33.7,30.2,23.18,North,0,0.0,0.0,87,0.00,,,0.00,WUHU216HW,2013-04-02 04:00:00,
2013-04-01 22:01:00,33.5,30.0,23.18,North,0,0.0,0.0,87,0.00,,,0.00,WUHU216HW,2013-04-02 04:01:00,
2013-04-01 22:06:00,33.5,30.0,23.18,North,0,0.0,0.0,87,0.00,,,0.00,WUHU216HW,2013-04-02 04:06:00,
2013-04-01 22:11:00,33.5,30.0,23.18,North,0,0.0,0.0,87,0.00,,,0.00,WUHU216HW,2013-04-02 04:11:00,
2013-04-01 22:16:00,33.3,30.1,23.18,North,0,0.0,0.0,88,0.00,,,0.00,WUHU216HW,2013-04-02 04:16:00,
2013-04-01 22:21:00,33.1,29.9,23.18,North,0,0.0,0.0,88,0.00,,,0.00,WUHU216HW,2013-04-02 04:21:00,
2013-04-01 22:26:00,33.1,29.9,23.18,North,0,0.0,0.0,88,0.00,,,0.00,WUHU216HW,2013-04-02 04:26:00,
2013-04-01 22:31:00,33.1,30.3,23.17,North,0,0.0,0.0,89,0.00,,,0.00,WUHU216HW,2013-04-02 04:31:00,
2013-04-01 22:37:00,32.9,30.1,23.18,North,0,0.0,0.0,89,0.00,,,0.00,WUHU216HW,2013-04-02 04:37:00,
2013-04-01 22:42:00,33.1,30.3,23.17,North,0,0.0,0.0,89,0.00,,,0.00,WUHU216HW,2013-04-02 04:42:00,
2013-04-01 22:47:00,33.1,30.3,23.17,North,0,0.0,0.0,89,0.00,,,0.00,WUHU216HW,2013-04-02 04:47:00,
2013-04-01 22:52:00,33.1,30.3,23.18,North,0,0.0,0.0,89,0.00,,,0.00,WUHU216HW,2013-04-02 04:52:00,
2013-04-01 22:57:00,33.1,30.3,23.17,North,0,0.0,0.0,89,0.00,,,0.00,WUHU216HW,2013-04-02 04:57:00,
2013-04-01 23:02:00,32.8,29.9,23.18,North,0,0.0,0.0,89,0.00,,,0.00,WUHU216HW,2013-04-02 05:02:00,
2013-04-01 23:07:00,32.8,29.9,23.17,North,0,0.0,0.0,89,0.00,,,0.00,WUHU216HW,2013-04-02 05:07:00,
2013-04-01 23:12:00,32.8,29.9,23.17,North,0,0.0,0.0,89,0.00,,,0.00,WUHU216HW,2013-04-02 05:12:00,
2013-04-01 23:17:00,32.6,29.7,23.17,North,0,0.0,0.0,89,0.00,,,0.00,WUHU216HW,2013-04-02 05:17:00,
2013-04-01 23:22:00,32.6,29.7,23.18,North,0,0.0,0.0,89,0.00,,,0.00,WUHU216HW,2013-04-02 05:22:00,
2013-04-01 23:27:00,32.6,30.0,23.18,North,0,0.0,0.0,90,0.00,,,0.00,WUHU216HW,2013-04-02 05:27:00,
2013-04-01 23:32:00,32.4,29.5,23.18,North,0,0.0,0.0,89,0.00,,,0.00,WUHU216HW,2013-04-02 05:32:00,
2013-04-01 23:37:00,32.4,29.5,23.18,North,0,0.0,0.0,89,0.00,,,0.00,WUHU216HW,2013-04-02 05:37:00,
2013-04-01 23:42:00,32.4,29.5,23.18,North,0,0.0,0.0,89,0.00,,,0.00,WUHU216HW,2013-04-02 05:42:00,
2013-04-01 23:47:00,32.4,29.5,23.17,North,0,0.0,0.0,89,0.00,,,0.00,WUHU216HW,2013-04-02 05:47:00,
2013-04-01 23:52:00,32.4,29.5,23.17,North,0,0.0,0.0,89,0.00,,,0.00,WUHU216HW,2013-04-02 05:52:00,
2013-04-01 23:57:00,32.6,30.0,23.17,North,0,0.0,0.0,90,0.00,,,0.00,WUHU216HW,2013-04-02 05:57:00,